Time;durP1;ratioP1;P1;durP2;ratioP2;P2;SDS_P1;SDS_P2;PMS_P1;PMS_P2;Temp;Humidity;BMP_temperature;BMP_pressure;BME280_temperature;BME280_humidity;BME280_pressure;Samples;Min_cycle;Max_cycle;Signal;HPM_P1;HPM_P2
2022/01/16 12:13:50;;;;;;;20.77;7.65;;;;;;;;;;6154326;23;20014;-72
2022/01/16 12:16:40;;;;;;;23.98;8.05;;;;;;;;;;6153604;23;20330;-72
2022/01/16 12:19:25;;;;;;;18.05;9.85;;;;;;;;;;6168399;23;20004;-72
2022/01/16 12:21:55;;;;;;;17.05;7.93;;;;;;;;;;6156996;23;20001;-72
2022/01/16 12:24:41;;;;;;;16.13;8.15;;;;;;;;;;6166854;23;19989;-72
2022/01/16 12:27:22;;;;;;;21.35;8.18;;;;;;;;;;6168741;23;20064;-72
2022/01/16 12:30:07;;;;;;;23.05;9.00;;;;;;;;;;6167601;23;20001;-72
2022/01/16 12:33:09;;;;;;;22.15;7.20;;;;;;;;;;6163439;23;20080;-72
2022/01/16 12:35:54;;;;;;;25.52;7.38;;;;;;;;;;6099800;23;20005;-72
2022/01/16 12:38:25;;;;;;;26.02;8.13;;;;;;;;;;6155673;23;20119;-72
2022/01/16 12:41:01;;;;;;;19.85;7.28;;;;;;;;;;6161415;23;20001;-71
2022/01/16 12:43:29;;;;;;;19.52;6.78;;;;;;;;;;6148676;23;20108;-72
2022/01/16 12:45:55;;;;;;;24.70;7.65;;;;;;;;;;6161761;23;20453;-72
2022/01/16 12:48:22;;;;;;;22.25;7.78;;;;;;;;;;6160712;23;19990;-72
2022/01/16 12:50:48;;;;;;;22.50;7.88;;;;;;;;;;6161402;23;20004;-72
2022/01/16 12:53:30;;;;;;;17.92;6.90;;;;;;;;;;6161575;23;20017;-72
2022/01/16 12:55:56;;;;;;;16.45;6.85;;;;;;;;;;6160901;23;20001;-72
2022/01/16 12:58:22;;;;;;;13.05;6.13;;;;;;;;;;6159288;23;20005;-72
2022/01/16 13:00:58;;;;;;;19.90;6.82;;;;;;;;;;6160330;23;20005;-72
2022/01/16 13:03:28;;;;;;;17.83;7.07;;;;;;;;;;6161318;23;20001;-73
2022/01/16 13:06:13;;;;;;;19.75;6.75;;;;;;;;;;6149122;23;20353;-72
2022/01/16 13:08:58;;;;;;;20.23;6.68;;;;;;;;;;6161697;23;19994;-72
2022/01/16 13:11:25;;;;;;;21.98;6.90;;;;;;;;;;6148952;23;20310;-72
2022/01/16 13:13:51;;;;;;;18.00;6.85;;;;;;;;;;6148581;23;20001;-72
2022/01/16 13:16:22;;;;;;;18.77;7.15;;;;;;;;;;6161111;23;20052;-72
2022/01/16 13:19:03;;;;;;;18.40;7.10;;;;;;;;;;6150273;23;19993;-72
2022/01/16 13:21:39;;;;;;;22.17;6.50;;;;;;;;;;6150830;23;20028;-72
2022/01/16 13:24:05;;;;;;;18.98;7.05;;;;;;;;;;6149712;23;19998;-72
2022/01/16 13:26:32;;;;;;;20.00;7.30;;;;;;;;;;6162315;23;20124;-72
2022/01/16 13:29:05;;;;;;;23.23;6.78;;;;;;;;;;6159918;23;20658;-72
2022/01/16 13:31:34;;;;;;;22.42;6.53;;;;;;;;;;6150763;23;20001;-72
2022/01/16 13:34:10;;;;;;;18.58;6.85;;;;;;;;;;6150379;23;20076;-72
2022/01/16 13:36:36;;;;;;;21.92;6.70;;;;;;;;;;6160898;23;20044;-72
2022/01/16 13:39:03;;;;;;;22.33;7.07;;;;;;;;;;6159577;23;20415;-72
2022/01/16 13:41:29;;;;;;;20.52;6.20;;;;;;;;;;6161062;23;19998;-72
2022/01/16 13:43:55;;;;;;;26.35;7.15;;;;;;;;;;6159929;23;19997;-73
2022/01/16 13:46:21;;;;;;;25.15;8.93;;;;;;;;;;6160062;23;20116;-73
2022/01/16 13:48:48;;;;;;;25.55;7.88;;;;;;;;;;6160653;23;19998;-73
2022/01/16 13:51:14;;;;;;;29.02;9.95;;;;;;;;;;6160402;23;20009;-72
2022/01/16 13:53:44;;;;;;;26.38;7.82;;;;;;;;;;6160761;23;20299;-73
2022/01/16 13:56:16;;;;;;;21.08;7.95;;;;;;;;;;6160376;23;19997;-73
2022/01/16 13:58:49;;;;;;;20.92;7.05;;;;;;;;;;6160939;23;19997;-73
2022/01/16 14:01:15;;;;;;;32.13;7.93;;;;;;;;;;6148519;23;20005;-72
2022/01/16 14:03:52;;;;;;;21.70;9.38;;;;;;;;;;6160427;23;20471;-72
2022/01/16 14:06:18;;;;;;;21.65;7.25;;;;;;;;;;6158879;23;20434;-72
2022/01/16 14:08:50;;;;;;;24.67;7.90;;;;;;;;;;6146530;23;19998;-73
2022/01/16 14:11:18;;;;;;;22.33;6.53;;;;;;;;;;6148216;23;20075;-73
2022/01/16 14:13:51;;;;;;;25.80;8.43;;;;;;;;;;6160150;23;20065;-73
2022/01/16 14:16:20;;;;;;;19.67;7.15;;;;;;;;;;6160560;23;19994;-73
2022/01/16 14:24:04;;;;;;;30.13;8.15;;;;;;;;;;6158489;23;20010;-71
2022/01/16 14:26:30;;;;;;;21.73;7.82;;;;;;;;;;6160626;23;19994;-72
2022/01/16 14:28:56;;;;;;;21.40;8.30;;;;;;;;;;6157733;23;20005;-71
2022/01/16 14:31:22;;;;;;;22.35;8.30;;;;;;;;;;6160452;23;20016;-71
2022/01/16 14:33:48;;;;;;;23.67;9.30;;;;;;;;;;6146266;23;20425;-72
2022/01/16 14:36:14;;;;;;;24.13;8.48;;;;;;;;;;6160095;23;20319;-73
2022/01/16 14:38:40;;;;;;;26.25;8.93;;;;;;;;;;6159872;23;19993;-73
2022/01/16 14:41:07;;;;;;;18.75;7.82;;;;;;;;;;6158728;23;20014;-73
2022/01/16 14:43:51;;;;;;;17.02;7.82;;;;;;;;;;6159594;23;20032;-71
2022/01/16 14:46:18;;;;;;;19.17;8.13;;;;;;;;;;6159291;23;20001;-73
2022/01/16 14:48:44;;;;;;;22.33;8.55;;;;;;;;;;6158149;23;20002;-72
2022/01/16 14:51:10;;;;;;;23.08;8.73;;;;;;;;;;6160482;23;20056;-71
2022/01/16 14:53:38;;;;;;;19.88;9.07;;;;;;;;;;6160434;23;20005;-71
2022/01/16 14:56:04;;;;;;;22.63;8.65;;;;;;;;;;6160952;23;20005;-70
2022/01/16 14:58:30;;;;;;;21.65;9.05;;;;;;;;;;6149216;23;20006;-72
2022/01/16 15:00:56;;;;;;;23.70;11.70;;;;;;;;;;6161496;23;20163;-71
2022/01/16 15:03:22;;;;;;;20.90;9.32;;;;;;;;;;6159953;23;20060;-71
2022/01/16 15:05:48;;;;;;;28.83;10.45;;;;;;;;;;6159567;23;20005;-71
2022/01/16 15:08:15;;;;;;;21.85;9.45;;;;;;;;;;6159858;23;20427;-71
2022/01/16 15:10:41;;;;;;;24.75;11.55;;;;;;;;;;6160612;23;20339;-71
2022/01/16 15:13:07;;;;;;;27.92;10.50;;;;;;;;;;6159363;23;20064;-71
2022/01/16 15:15:33;;;;;;;22.65;9.57;;;;;;;;;;6161250;23;20391;-71
2022/01/16 15:18:00;;;;;;;23.60;9.52;;;;;;;;;;6159835;23;20331;-70
2022/01/16 15:20:30;;;;;;;33.65;9.20;;;;;;;;;;6161349;23;20037;-70
2022/01/16 15:22:57;;;;;;;31.13;9.80;;;;;;;;;;6160085;23;20002;-69
2022/01/16 15:25:27;;;;;;;28.25;10.20;;;;;;;;;;6162131;23;20008;-69
2022/01/16 15:27:53;;;;;;;32.25;15.50;;;;;;;;;;6157680;23;20006;-69
2022/01/16 15:30:20;;;;;;;27.77;10.90;;;;;;;;;;6149250;23;20009;-69
2022/01/16 15:32:46;;;;;;;29.83;10.70;;;;;;;;;;6160532;23;19997;-68
2022/01/16 15:35:14;;;;;;;28.02;12.25;;;;;;;;;;6159270;23;20078;-71
2022/01/16 15:37:40;;;;;;;34.70;11.00;;;;;;;;;;6148580;23;20287;-70
2022/01/16 15:40:08;;;;;;;22.85;10.13;;;;;;;;;;6147004;23;20390;-70
2022/01/16 15:42:35;;;;;;;33.83;10.05;;;;;;;;;;6162337;23;20005;-71
2022/01/16 15:45:01;;;;;;;28.05;10.60;;;;;;;;;;6160541;23;20005;-70
2022/01/16 15:47:27;;;;;;;29.50;11.60;;;;;;;;;;6161748;23;20005;-70
2022/01/16 15:49:53;;;;;;;28.35;10.57;;;;;;;;;;6160112;23;20328;-70
2022/01/16 15:52:19;;;;;;;29.98;11.13;;;;;;;;;;6161260;23;20032;-70
2022/01/16 15:54:49;;;;;;;28.73;10.45;;;;;;;;;;6159840;23;20031;-70
2022/01/16 15:57:16;;;;;;;26.50;10.40;;;;;;;;;;6158540;23;20202;-72
2022/01/16 15:59:42;;;;;;;25.00;10.50;;;;;;;;;;6158744;23;20008;-72
2022/01/16 16:02:08;;;;;;;24.80;9.88;;;;;;;;;;6159636;23;20001;-72
2022/01/16 16:04:35;;;;;;;30.02;9.50;;;;;;;;;;6149574;23;20012;-71
2022/01/16 16:07:01;;;;;;;27.35;10.15;;;;;;;;;;6161093;23;20438;-72
2022/01/16 16:09:27;;;;;;;33.10;9.90;;;;;;;;;;6162933;23;20387;-73
2022/01/16 16:11:55;;;;;;;24.30;10.60;;;;;;;;;;6161887;23;20092;-73
2022/01/16 16:14:21;;;;;;;24.58;9.07;;;;;;;;;;6162514;23;20402;-73
2022/01/16 16:16:48;;;;;;;24.17;9.70;;;;;;;;;;6161250;23;20055;-73
2022/01/16 16:19:14;;;;;;;27.23;11.00;;;;;;;;;;6163110;23;19994;-72
2022/01/16 16:21:40;;;;;;;23.17;9.98;;;;;;;;;;6161102;23;20016;-73
2022/01/16 16:24:06;;;;;;;29.23;9.95;;;;;;;;;;6159740;23;20005;-71
2022/01/16 16:26:32;;;;;;;27.02;9.20;;;;;;;;;;6159588;23;20428;-71
2022/01/16 16:29:02;;;;;;;49.90;21.35;;;;;;;;;;6162218;23;20001;-72
2022/01/16 16:31:31;;;;;;;28.60;9.20;;;;;;;;;;6161257;23;20010;-71
2022/01/16 16:33:57;;;;;;;30.55;9.15;;;;;;;;;;6151853;23;20001;-72
2022/01/16 16:36:23;;;;;;;36.08;10.23;;;;;;;;;;6162090;23;20002;-71
2022/01/16 16:38:49;;;;;;;30.30;9.02;;;;;;;;;;6156587;23;20511;-71
2022/01/16 16:41:15;;;;;;;29.38;9.68;;;;;;;;;;6162525;23;20084;-71
2022/01/16 16:43:42;;;;;;;22.33;8.27;;;;;;;;;;6159393;23;20327;-71
2022/01/16 16:46:08;;;;;;;26.60;9.07;;;;;;;;;;6154205;23;20013;-75
2022/01/16 16:48:34;;;;;;;26.88;8.82;;;;;;;;;;6157236;23;20060;-73
2022/01/16 16:51:01;;;;;;;20.05;8.52;;;;;;;;;;6158090;23;20001;-74
2022/01/16 16:53:29;;;;;;;32.42;9.63;;;;;;;;;;6160983;23;20053;-74
2022/01/16 16:55:56;;;;;;;31.80;8.90;;;;;;;;;;6162064;23;20006;-73
2022/01/16 16:58:22;;;;;;;23.75;8.65;;;;;;;;;;6148606;23;20060;-73
2022/01/16 17:00:48;;;;;;;24.27;8.60;;;;;;;;;;6160622;23;20469;-75
2022/01/16 17:03:14;;;;;;;25.63;8.10;;;;;;;;;;6161459;23;20457;-73
2022/01/16 17:05:40;;;;;;;23.30;8.60;;;;;;;;;;6160702;23;20292;-74
2022/01/16 17:08:07;;;;;;;27.35;9.32;;;;;;;;;;6161645;23;20021;-73
2022/01/16 17:10:33;;;;;;;23.83;8.10;;;;;;;;;;6161644;23;20088;-75
2022/01/16 17:12:59;;;;;;;29.40;8.40;;;;;;;;;;6161455;23;20370;-74
2022/01/16 17:15:26;;;;;;;28.42;8.40;;;;;;;;;;6161018;23;20004;-73
2022/01/16 17:17:53;;;;;;;31.20;9.65;;;;;;;;;;6152778;23;20443;-74
2022/01/16 17:20:20;;;;;;;26.15;8.20;;;;;;;;;;6160392;23;20437;-74
2022/01/16 17:22:48;;;;;;;31.40;8.77;;;;;;;;;;6162676;23;20005;-76
2022/01/16 17:25:14;;;;;;;40.75;8.75;;;;;;;;;;6161473;23;20005;-74
2022/01/16 17:27:41;;;;;;;25.88;8.55;;;;;;;;;;6150526;23;20002;-74
2022/01/16 17:30:07;;;;;;;26.60;8.90;;;;;;;;;;6150191;23;20005;-74
2022/01/16 17:32:34;;;;;;;29.02;8.48;;;;;;;;;;6162834;23;20443;-77
2022/01/16 17:35:00;;;;;;;41.90;8.95;;;;;;;;;;6161401;23;20410;-74
2022/01/16 17:37:26;;;;;;;24.88;8.38;;;;;;;;;;6162605;23;20085;-74
2022/01/16 17:39:52;;;;;;;26.48;9.07;;;;;;;;;;6161909;23;20043;-72
2022/01/16 17:42:19;;;;;;;28.20;9.32;;;;;;;;;;6161178;23;20064;-73
2022/01/16 17:44:46;;;;;;;24.00;8.23;;;;;;;;;;6162305;23;20052;-73
2022/01/16 17:47:16;;;;;;;26.88;8.13;;;;;;;;;;6161140;23;20001;-73
2022/01/16 17:49:42;;;;;;;24.83;7.85;;;;;;;;;;6162120;23;20005;-73
2022/01/16 17:52:08;;;;;;;21.13;7.30;;;;;;;;;;6158858;23;20031;-73
2022/01/16 17:54:34;;;;;;;27.60;7.00;;;;;;;;;;6162304;23;20289;-72
2022/01/16 17:57:00;;;;;;;31.67;7.57;;;;;;;;;;6160823;23;19994;-73
2022/01/16 17:59:26;;;;;;;24.35;7.88;;;;;;;;;;6160098;23;20008;-75
2022/01/16 18:01:52;;;;;;;24.35;7.97;;;;;;;;;;6159942;23;20010;-74
2022/01/16 18:04:18;;;;;;;27.30;7.68;;;;;;;;;;6149285;23;20009;-72
2022/01/16 18:06:44;;;;;;;26.45;7.55;;;;;;;;;;6160952;23;20009;-72
2022/01/16 18:09:10;;;;;;;43.75;14.65;;;;;;;;;;6161537;23;20002;-72
2022/01/16 18:11:36;;;;;;;40.88;9.85;;;;;;;;;;6147901;23;20022;-73
2022/01/16 18:14:02;;;;;;;35.08;7.22;;;;;;;;;;6159929;23;20002;-74
2022/01/16 18:16:29;;;;;;;24.40;7.18;;;;;;;;;;6159150;23;20554;-73
2022/01/16 18:18:56;;;;;;;26.58;7.38;;;;;;;;;;6160887;23;19997;-73
2022/01/16 18:21:22;;;;;;;25.77;7.80;;;;;;;;;;6149602;23;20017;-73
2022/01/16 18:23:48;;;;;;;25.00;6.35;;;;;;;;;;6158747;23;20001;-75
2022/01/16 18:26:14;;;;;;;30.40;7.22;;;;;;;;;;6162192;23;20077;-72
2022/01/16 18:28:40;;;;;;;42.67;6.63;;;;;;;;;;6156474;23;20017;-73
2022/01/16 18:31:08;;;;;;;26.00;5.90;;;;;;;;;;6165128;23;20446;-73
2022/01/16 18:33:34;;;;;;;34.42;6.25;;;;;;;;;;6159940;23;20001;-74
2022/01/16 18:36:00;;;;;;;36.20;6.53;;;;;;;;;;6162045;23;19997;-74
2022/01/16 18:38:26;;;;;;;36.17;6.53;;;;;;;;;;6159331;23;20002;-75
2022/01/16 18:40:53;;;;;;;36.25;6.93;;;;;;;;;;6161849;23;20014;-74
2022/01/16 18:43:19;;;;;;;34.85;6.68;;;;;;;;;;6164156;23;20009;-73
2022/01/16 18:45:53;;;;;;;39.63;6.32;;;;;;;;;;6164676;23;20002;-72
2022/01/16 18:48:23;;;;;;;37.47;6.35;;;;;;;;;;6161230;23;20002;-74
2022/01/16 18:50:53;;;;;;;30.20;5.63;;;;;;;;;;6160545;23;19997;-73
2022/01/16 18:53:19;;;;;;;33.83;5.90;;;;;;;;;;6160075;23;19997;-73
2022/01/16 18:55:45;;;;;;;41.03;7.68;;;;;;;;;;6157054;23;20031;-72
2022/01/16 18:58:13;;;;;;;33.30;5.72;;;;;;;;;;6162699;23;19994;-73
2022/01/16 19:00:40;;;;;;;39.70;4.75;;;;;;;;;;6158811;23;20430;-74
2022/01/16 19:03:06;;;;;;;32.35;5.72;;;;;;;;;;6161915;23;20012;-72
2022/01/16 19:05:32;;;;;;;38.35;4.80;;;;;;;;;;6157343;23;20001;-73
2022/01/16 19:07:58;;;;;;;42.03;15.20;;;;;;;;;;6160905;23;20485;-72
2022/01/16 19:10:25;;;;;;;47.85;5.75;;;;;;;;;;6158422;23;20013;-72
2022/01/16 19:12:51;;;;;;;32.88;5.65;;;;;;;;;;6150234;23;20052;-72
2022/01/16 19:15:17;;;;;;;34.63;5.97;;;;;;;;;;6156634;23;20372;-73
2022/01/16 19:17:43;;;;;;;47.88;6.55;;;;;;;;;;6158994;23;20304;-72
2022/01/16 19:20:09;;;;;;;30.80;5.13;;;;;;;;;;6148038;23;20009;-75
2022/01/16 19:22:38;;;;;;;35.10;6.20;;;;;;;;;;6160074;23;20047;-75
2022/01/16 19:25:08;;;;;;;31.30;5.40;;;;;;;;;;6161329;23;20051;-71
2022/01/16 19:27:34;;;;;;;30.73;4.20;;;;;;;;;;6159303;23;20441;-72
2022/01/16 19:30:00;;;;;;;33.40;5.15;;;;;;;;;;6161605;23;20020;-72
2022/01/16 19:32:26;;;;;;;33.00;4.63;;;;;;;;;;6146451;23;20033;-72
2022/01/16 19:34:53;;;;;;;34.95;5.18;;;;;;;;;;6160789;23;20427;-73
2022/01/16 19:37:19;;;;;;;28.30;6.45;;;;;;;;;;6157540;23;20009;-71
2022/01/16 19:39:45;;;;;;;28.27;4.47;;;;;;;;;;6160318;23;20025;-73
2022/01/16 19:42:17;;;;;;;22.63;3.08;;;;;;;;;;6159029;23;20466;-72
2022/01/16 19:44:43;;;;;;;21.33;3.95;;;;;;;;;;6160517;23;20017;-73
2022/01/16 19:47:09;;;;;;;16.52;2.67;;;;;;;;;;6160864;23;20008;-72
2022/01/16 19:49:35;;;;;;;19.38;2.10;;;;;;;;;;6150056;23;20006;-73
2022/01/16 19:52:01;;;;;;;18.70;2.08;;;;;;;;;;6162185;23;19997;-72
2022/01/16 19:54:27;;;;;;;15.65;1.40;;;;;;;;;;6161842;23;20521;-72
2022/01/16 19:56:54;;;;;;;16.63;2.08;;;;;;;;;;6158816;23;20076;-72
2022/01/16 19:59:20;;;;;;;16.10;1.45;;;;;;;;;;6161277;23;20001;-72
2022/01/16 20:01:46;;;;;;;10.02;1.77;;;;;;;;;;6161834;23;20017;-72
2022/01/16 20:04:13;;;;;;;11.93;1.67;;;;;;;;;;6161883;23;20028;-72
2022/01/16 20:06:39;;;;;;;11.15;2.05;;;;;;;;;;6162369;23;20371;-72
2022/01/16 20:09:05;;;;;;;19.83;1.77;;;;;;;;;;6162179;23;20001;-73
2022/01/16 20:11:32;;;;;;;11.15;1.65;;;;;;;;;;6150983;23;20018;-73
2022/01/16 20:13:59;;;;;;;11.93;1.25;;;;;;;;;;6159694;23;20009;-73
2022/01/16 20:16:25;;;;;;;9.30;1.63;;;;;;;;;;6162743;23;20312;-73
2022/01/16 20:18:52;;;;;;;10.50;1.98;;;;;;;;;;6161155;23;20009;-73
2022/01/16 20:21:18;;;;;;;9.40;0.95;;;;;;;;;;6162521;23;20065;-72
2022/01/16 20:23:44;;;;;;;6.93;1.52;;;;;;;;;;6149920;23;20006;-72
2022/01/16 20:26:10;;;;;;;9.45;1.63;;;;;;;;;;6162318;23;20101;-72
2022/01/16 20:28:36;;;;;;;7.65;1.05;;;;;;;;;;6161697;23;20439;-72
2022/01/16 20:31:02;;;;;;;9.15;1.00;;;;;;;;;;6160398;23;20002;-73
2022/01/16 20:33:28;;;;;;;17.20;1.42;;;;;;;;;;6161500;23;20013;-74
2022/01/16 20:35:54;;;;;;;166.18;81.65;;;;;;;;;;6159646;23;20323;-72
2022/01/16 20:38:20;;;;;;;45.08;22.52;;;;;;;;;;6162589;23;20052;-72
2022/01/16 20:40:49;;;;;;;7.50;1.50;;;;;;;;;;6163023;23;20008;-74
2022/01/16 20:43:16;;;;;;;19.85;1.85;;;;;;;;;;6162160;23;20008;-75
2022/01/16 20:45:42;;;;;;;18.75;1.70;;;;;;;;;;6157889;23;20021;-72
2022/01/16 20:48:08;;;;;;;10.45;1.80;;;;;;;;;;6158719;23;20083;-72
2022/01/16 20:50:34;;;;;;;10.82;1.42;;;;;;;;;;6161799;23;20025;-72
2022/01/16 20:53:00;;;;;;;14.27;2.47;;;;;;;;;;6150485;23;20075;-74
2022/01/16 20:55:27;;;;;;;15.02;2.47;;;;;;;;;;6157795;23;20108;-72
2022/01/16 20:57:53;;;;;;;10.90;1.52;;;;;;;;;;6161067;23;19997;-72
2022/01/16 21:00:20;;;;;;;18.42;1.92;;;;;;;;;;6158881;23;20100;-72
2022/01/16 21:02:46;;;;;;;14.82;2.05;;;;;;;;;;6161623;23;20296;-72
2022/01/16 21:05:14;;;;;;;13.40;1.77;;;;;;;;;;6160338;23;19997;-72
2022/01/16 21:07:40;;;;;;;17.40;2.38;;;;;;;;;;6160954;23;20080;-72
2022/01/16 21:10:08;;;;;;;13.77;1.73;;;;;;;;;;6159397;23;20075;-72
2022/01/16 21:12:34;;;;;;;21.58;2.22;;;;;;;;;;6158925;23;20105;-72
2022/01/16 21:15:04;;;;;;;21.95;2.55;;;;;;;;;;6161368;23;19998;-72
2022/01/16 21:17:30;;;;;;;15.48;2.25;;;;;;;;;;6158272;23;20331;-73
2022/01/16 21:19:56;;;;;;;21.20;3.08;;;;;;;;;;6162076;23;19993;-73
2022/01/16 21:22:24;;;;;;;17.42;2.03;;;;;;;;;;6160577;23;20001;-73
2022/01/16 21:24:50;;;;;;;12.98;2.97;;;;;;;;;;6162869;23;20001;-73
2022/01/16 21:27:17;;;;;;;20.67;2.80;;;;;;;;;;6160260;23;20008;-73
2022/01/16 21:29:44;;;;;;;14.25;2.17;;;;;;;;;;6160613;23;19998;-73
2022/01/16 21:32:11;;;;;;;21.75;2.88;;;;;;;;;;6159747;23;20453;-73
2022/01/16 21:34:40;;;;;;;14.50;1.65;;;;;;;;;;6161276;23;20001;-73
2022/01/16 21:37:06;;;;;;;17.50;1.95;;;;;;;;;;6160800;23;20009;-72
2022/01/16 21:39:33;;;;;;;23.88;2.25;;;;;;;;;;6160277;23;20005;-72
2022/01/16 21:42:00;;;;;;;18.52;3.55;;;;;;;;;;6160637;23;20013;-73
2022/01/16 21:44:26;;;;;;;20.98;2.17;;;;;;;;;;6160443;23;20045;-72
2022/01/16 21:46:52;;;;;;;23.63;4.30;;;;;;;;;;6149182;23;20050;-72
2022/01/16 21:49:18;;;;;;;19.33;2.97;;;;;;;;;;6160222;23;20028;-73
2022/01/16 21:51:46;;;;;;;20.75;1.85;;;;;;;;;;6161372;23;20005;-73
2022/01/16 21:54:13;;;;;;;15.90;2.55;;;;;;;;;;6148011;23;20005;-72
2022/01/16 21:56:39;;;;;;;21.35;2.70;;;;;;;;;;6162099;23;20504;-72
2022/01/16 21:59:06;;;;;;;21.92;3.53;;;;;;;;;;6157916;23;20001;-72
2022/01/16 22:01:33;;;;;;;19.50;2.05;;;;;;;;;;6149207;23;20332;-72
2022/01/16 22:03:59;;;;;;;21.73;3.28;;;;;;;;;;6158197;23;20435;-71
2022/01/16 22:06:25;;;;;;;27.83;3.40;;;;;;;;;;6159615;23;20000;-74
2022/01/16 22:08:51;;;;;;;25.30;3.28;;;;;;;;;;6159199;23;19994;-73
2022/01/16 22:11:18;;;;;;;22.10;3.75;;;;;;;;;;6149218;23;20087;-72
2022/01/16 22:13:44;;;;;;;32.33;9.55;;;;;;;;;;6158491;23;20093;-74
2022/01/16 22:16:10;;;;;;;27.65;6.35;;;;;;;;;;6149902;23;20010;-73
2022/01/16 22:18:37;;;;;;;12.77;3.55;;;;;;;;;;6157156;23;19998;-72
2022/01/16 22:21:03;;;;;;;16.90;2.88;;;;;;;;;;6149910;23;20451;-73
2022/01/16 22:23:31;;;;;;;16.83;3.03;;;;;;;;;;6160119;23;20825;-73
2022/01/16 22:25:57;;;;;;;27.65;3.30;;;;;;;;;;6161558;23;20068;-73
2022/01/16 22:28:26;;;;;;;15.10;1.83;;;;;;;;;;6159801;23;20402;-72
2022/01/16 22:30:52;;;;;;;14.60;3.05;;;;;;;;;;6158860;23;20006;-72
2022/01/16 22:33:18;;;;;;;20.15;2.67;;;;;;;;;;6159469;23;20002;-72
2022/01/16 22:35:44;;;;;;;17.10;1.88;;;;;;;;;;6158223;23;19997;-73
2022/01/16 22:38:10;;;;;;;23.27;2.33;;;;;;;;;;6161257;23;19993;-73
2022/01/16 22:40:36;;;;;;;20.38;1.95;;;;;;;;;;6159959;23;20021;-72
2022/01/16 22:43:02;;;;;;;18.20;2.00;;;;;;;;;;6161131;23;20006;-72
2022/01/16 22:45:28;;;;;;;17.63;3.35;;;;;;;;;;6157856;23;20012;-73
2022/01/16 22:47:55;;;;;;;25.67;3.38;;;;;;;;;;6159554;23;20008;-73
2022/01/16 22:50:25;;;;;;;19.85;2.50;;;;;;;;;;6158019;23;19998;-72
2022/01/16 22:52:51;;;;;;;17.23;3.13;;;;;;;;;;6160049;23;20005;-73
2022/01/16 22:55:17;;;;;;;18.13;3.33;;;;;;;;;;6159242;23;20002;-71
2022/01/16 22:57:43;;;;;;;19.58;2.70;;;;;;;;;;6150092;23;20356;-72
2022/01/16 23:00:12;;;;;;;23.50;3.50;;;;;;;;;;6158335;23;20008;-72
2022/01/16 23:02:38;;;;;;;16.50;2.03;;;;;;;;;;6160499;23;20327;-71
2022/01/16 23:05:05;;;;;;;21.55;2.60;;;;;;;;;;6158012;23;20005;-71
2022/01/16 23:07:32;;;;;;;26.48;3.40;;;;;;;;;;6159610;23;19998;-72
2022/01/16 23:09:58;;;;;;;23.40;3.67;;;;;;;;;;6159073;23;20049;-71
2022/01/16 23:12:24;;;;;;;16.83;3.47;;;;;;;;;;6159713;23;20021;-72
2022/01/16 23:14:50;;;;;;;18.58;2.17;;;;;;;;;;6160144;23;19997;-71
2022/01/16 23:17:18;;;;;;;16.13;3.40;;;;;;;;;;6160396;23;20485;-72
2022/01/16 23:19:44;;;;;;;24.25;2.88;;;;;;;;;;6149211;23;20002;-72
2022/01/16 23:22:10;;;;;;;19.40;3.40;;;;;;;;;;6158864;23;20005;-72
2022/01/16 23:24:36;;;;;;;20.60;2.47;;;;;;;;;;6161349;23;20331;-71
2022/01/16 23:27:02;;;;;;;23.58;2.92;;;;;;;;;;6159635;23;20362;-72
2022/01/16 23:29:29;;;;;;;18.92;2.40;;;;;;;;;;6161333;23;20694;-72
2022/01/16 23:31:55;;;;;;;16.58;3.55;;;;;;;;;;6160043;23;19997;-71
2022/01/16 23:34:21;;;;;;;18.38;2.42;;;;;;;;;;6158624;23;20028;-71
2022/01/16 23:36:48;;;;;;;24.85;3.13;;;;;;;;;;6158493;23;20030;-71
2022/01/16 23:39:14;;;;;;;20.67;4.15;;;;;;;;;;6160901;23;20029;-71
2022/01/16 23:41:40;;;;;;;18.27;2.47;;;;;;;;;;6158250;23;20013;-72
2022/01/16 23:44:12;;;;;;;16.33;2.40;;;;;;;;;;6159603;23;20002;-72
2022/01/16 23:46:38;;;;;;;;;;;;;;;;;;6159614;23;19997;-72
2022/01/16 23:49:04;;;;;;;21.67;3.05;;;;;;;;;;6159397;23;19975;-72
2022/01/16 23:51:31;;;;;;;27.60;3.00;;;;;;;;;;6148691;23;20040;-72
2022/01/16 23:53:58;;;;;;;18.05;2.58;;;;;;;;;;6147730;23;20005;-72
2022/01/16 23:56:24;;;;;;;29.25;3.10;;;;;;;;;;6149284;23;20005;-73
2022/01/16 23:58:52;;;;;;;19.95;2.97;;;;;;;;;;6160392;23;19998;-72
